createdAt,value
2022-08-30T00:01:34.435Z,17.40
2022-08-30T00:04:03.422Z,17.50
2022-08-30T00:06:31.773Z,17.40
2022-08-30T00:08:59.824Z,17.30
2022-08-30T00:11:29.125Z,17.20
2022-08-30T00:13:58.577Z,17.20
2022-08-30T00:16:27.353Z,17.30
2022-08-30T00:18:55.410Z,17.20
2022-08-30T00:21:24.126Z,17.20
2022-08-30T00:23:51.975Z,17.40
2022-08-30T00:26:19.787Z,17.10
2022-08-30T00:28:47.755Z,17.20
2022-08-30T00:31:17.031Z,17.40
2022-08-30T00:33:45.118Z,17.30
2022-08-30T00:36:13.007Z,17.20
2022-08-30T00:38:40.855Z,17.40
2022-08-30T00:41:08.703Z,17.50
2022-08-30T00:43:37.068Z,17.20
2022-08-30T00:46:08.190Z,17.20
2022-08-30T00:48:41.545Z,17.30
2022-08-30T00:51:11.657Z,17.50
2022-08-30T00:53:43.317Z,17.40
2022-08-30T00:56:12.006Z,17.20
2022-08-30T00:58:45.394Z,17.40
2022-08-30T01:01:13.915Z,17.60
2022-08-30T01:03:44.352Z,17.30
2022-08-30T01:06:15.484Z,17.20
2022-08-30T01:08:43.785Z,17.20
2022-08-30T01:11:13.574Z,17.20
2022-08-30T01:13:41.891Z,17.50
2022-08-30T01:16:09.811Z,17.30
2022-08-30T01:18:39.646Z,17.30
2022-08-30T01:21:19.997Z,17.60
2022-08-30T01:23:53.686Z,17.20
2022-08-30T01:26:22.944Z,17.20
2022-08-30T01:28:56.207Z,17.30
2022-08-30T01:31:24.263Z,17.30
2022-08-30T01:33:52.115Z,17.30
2022-08-30T01:36:20.765Z,17.40
2022-08-30T01:38:54.015Z,17.10
2022-08-30T01:41:24.648Z,17.20
2022-08-30T01:43:54.652Z,17.10
2022-08-30T01:46:24.507Z,17.10
2022-08-30T01:48:54.547Z,17.20
2022-08-30T01:51:23.946Z,17.40
2022-08-30T01:53:53.499Z,17.40
2022-08-30T01:56:21.889Z,17.40
2022-08-30T02:01:20.727Z,17.30
2022-08-30T02:03:49.008Z,17.30
2022-08-30T02:06:20.646Z,17.30
2022-08-30T02:08:48.895Z,17.30
2022-08-30T02:11:19.166Z,17.30
2022-08-30T02:13:47.452Z,17.30
2022-08-30T02:16:17.541Z,17.30
2022-08-30T02:18:45.615Z,17.30
2022-08-30T02:21:14.029Z,17.30
2022-08-30T02:23:41.990Z,17.30
2022-08-30T02:26:10.609Z,17.30
2022-08-30T02:28:49.496Z,17.20
2022-08-30T02:31:20.854Z,17.30
2022-08-30T02:33:50.847Z,17.20
2022-08-30T02:36:20.619Z,17.30
2022-08-30T02:38:48.573Z,17.40
2022-08-30T02:41:16.398Z,17.20
2022-08-30T02:43:45.572Z,17.00
2022-08-30T02:46:13.980Z,17.30
2022-08-30T02:48:41.815Z,17.30
2022-08-30T02:51:11.834Z,17.20
2022-08-30T02:53:40.406Z,17.10
2022-08-30T02:56:09.133Z,17.00
2022-08-30T02:58:37.252Z,17.20
2022-08-30T03:01:06.838Z,17.20
2022-08-30T03:03:34.823Z,16.90
2022-08-30T03:06:03.372Z,17.10
2022-08-30T03:08:31.366Z,17.00
2022-08-30T03:10:59.439Z,16.90
2022-08-30T03:13:27.671Z,17.00
2022-08-30T03:15:55.527Z,17.20
2022-08-30T03:18:25.291Z,17.10
2022-08-30T03:20:54.622Z,17.00
2022-08-30T03:23:24.070Z,17.10
2022-08-30T03:25:51.998Z,17.10
2022-08-30T03:28:19.870Z,16.90
2022-08-30T03:30:48.021Z,17.00
2022-08-30T03:33:16.392Z,17.00
2022-08-30T03:35:47.957Z,17.00
2022-08-30T03:38:16.058Z,16.80
2022-08-30T03:40:44.647Z,17.00
2022-08-30T03:43:12.525Z,17.00
2022-08-30T03:45:40.796Z,17.00
2022-08-30T03:48:08.752Z,16.90
2022-08-30T03:50:36.900Z,17.00
2022-08-30T03:53:05.993Z,16.90
2022-08-30T03:55:34.012Z,16.70
2022-08-30T03:58:01.803Z,16.90
2022-08-30T04:00:29.808Z,16.70
2022-08-30T04:02:57.548Z,16.60
2022-08-30T04:05:25.414Z,16.80
2022-08-30T04:07:53.405Z,16.80
2022-08-30T04:10:23.013Z,16.80
2022-08-30T04:12:51.613Z,16.80
2022-08-30T04:15:20.788Z,16.60
2022-08-30T04:17:48.977Z,16.70
2022-08-30T04:20:17.343Z,16.70
2022-08-30T04:22:45.366Z,16.80
2022-08-30T04:25:15.630Z,16.70
2022-08-30T04:27:46.278Z,16.80
2022-08-30T04:30:15.182Z,16.80
2022-08-30T04:32:43.453Z,16.80
2022-08-30T04:35:12.013Z,16.80
2022-08-30T04:37:40.299Z,16.80
2022-08-30T04:40:09.955Z,16.80
2022-08-30T04:42:38.473Z,16.80
2022-08-30T04:45:11.653Z,16.70
2022-08-30T04:47:40.011Z,16.80
2022-08-30T04:50:10.029Z,16.80
2022-08-30T04:52:38.330Z,16.80
2022-08-30T04:55:08.729Z,16.70
2022-08-30T04:57:36.516Z,16.80
2022-08-30T05:00:08.355Z,16.80
2022-08-30T05:02:36.285Z,16.80
2022-08-30T05:05:22.125Z,16.80
2022-08-30T05:07:50.024Z,16.70
2022-08-30T05:10:18.015Z,16.80
2022-08-30T05:12:46.047Z,16.80
2022-08-30T05:15:15.457Z,16.80
2022-08-30T05:17:43.490Z,16.80
2022-08-30T05:20:13.231Z,16.80
2022-08-30T05:22:49.863Z,16.80
2022-08-30T05:25:23.847Z,16.90
2022-08-30T05:27:52.427Z,16.90
2022-08-30T05:30:23.321Z,16.90
2022-08-30T05:32:51.177Z,17.00
2022-08-30T05:35:24.969Z,17.00
2022-08-30T05:37:53.644Z,17.00
2022-08-30T05:40:22.442Z,17.00
2022-08-30T05:42:50.366Z,17.00
2022-08-30T05:45:18.504Z,17.10
2022-08-30T05:47:48.517Z,17.10
2022-08-30T05:50:16.707Z,17.10
2022-08-30T05:52:45.136Z,17.10
2022-08-30T05:55:13.420Z,17.20
2022-08-30T05:57:42.230Z,17.20
2022-08-30T06:00:13.426Z,17.30
2022-08-30T06:02:41.622Z,17.30
2022-08-30T06:05:13.054Z,17.30
2022-08-30T06:07:42.433Z,17.40
2022-08-30T06:10:12.493Z,17.40
2022-08-30T06:12:40.528Z,17.40
2022-08-30T06:15:09.277Z,17.40
2022-08-30T06:17:39.559Z,17.50
2022-08-30T06:20:09.040Z,17.40
2022-08-30T06:22:38.661Z,17.50
2022-08-30T06:25:07.554Z,17.50
2022-08-30T06:27:35.341Z,17.60
2022-08-30T06:30:03.113Z,17.60
2022-08-30T06:32:30.907Z,17.60
2022-08-30T06:34:58.645Z,17.70
2022-08-30T06:37:29.302Z,17.70
2022-08-30T06:39:59.537Z,17.70
2022-08-30T06:42:31.724Z,17.90
2022-08-30T06:44:59.947Z,17.90
2022-08-30T06:47:28.430Z,17.90
2022-08-30T06:49:56.299Z,18.10
2022-08-30T06:52:24.129Z,18.10
2022-08-30T06:54:52.285Z,18.20
2022-08-30T06:57:21.395Z,18.30
2022-08-30T06:59:49.228Z,18.30
2022-08-30T07:02:17.093Z,18.30
2022-08-30T07:04:44.983Z,18.40
2022-08-30T07:07:12.915Z,18.50
2022-08-30T07:09:43.302Z,18.50
2022-08-30T07:12:12.563Z,18.60
2022-08-30T07:14:42.967Z,18.70
2022-08-30T07:17:24.859Z,18.70
2022-08-30T07:19:52.693Z,18.70
2022-08-30T07:22:20.928Z,18.80
2022-08-30T07:24:49.379Z,18.80
2022-08-30T07:27:17.527Z,18.80
2022-08-30T07:29:46.695Z,18.90
2022-08-30T07:32:14.459Z,18.90
2022-08-30T07:34:42.219Z,19.00
2022-08-30T07:37:10.033Z,18.90
2022-08-30T07:39:47.941Z,19.00
2022-08-30T07:42:16.159Z,19.00
2022-08-30T07:44:44.469Z,19.00
2022-08-30T07:47:13.657Z,19.00
2022-08-30T07:49:41.481Z,19.00
2022-08-30T07:52:09.434Z,19.10
2022-08-30T07:54:37.433Z,19.00
2022-08-30T07:57:05.624Z,19.10
2022-08-30T07:59:36.104Z,19.10
2022-08-30T08:02:04.621Z,19.20
2022-08-30T08:04:35.519Z,19.10
2022-08-30T08:07:03.500Z,19.20
2022-08-30T08:09:31.539Z,19.20
2022-08-30T08:11:59.302Z,19.20
2022-08-30T08:14:28.347Z,19.20
2022-08-30T08:16:56.301Z,19.20
2022-08-30T08:19:24.199Z,19.30
2022-08-30T08:22:19.566Z,19.30
2022-08-30T08:24:44.441Z,19.30
2022-08-30T08:27:12.240Z,19.30
2022-08-30T08:29:40.077Z,19.20
2022-08-30T08:32:07.885Z,19.30
2022-08-30T08:34:36.440Z,19.30
2022-08-30T08:37:05.659Z,19.30
2022-08-30T08:39:33.470Z,19.30
2022-08-30T08:42:11.496Z,19.40
2022-08-30T08:44:54.395Z,19.50
2022-08-30T08:47:29.172Z,19.40
2022-08-30T08:50:00.518Z,19.40
2022-08-30T08:52:55.074Z,19.40
2022-08-30T08:55:24.697Z,19.40
2022-08-30T08:57:53.286Z,19.40
2022-08-30T09:00:21.191Z,19.40
2022-08-30T09:02:57.601Z,19.40
2022-08-30T09:05:28.714Z,19.50
2022-08-30T09:08:04.556Z,19.60
2022-08-30T09:10:49.799Z,19.60
2022-08-30T09:13:18.981Z,19.70
2022-08-30T09:15:51.121Z,19.90
2022-08-30T09:18:40.739Z,20.00
2022-08-30T09:21:11.504Z,19.90
2022-08-30T09:23:49.880Z,19.90
2022-08-30T09:26:30.082Z,20.00
2022-08-30T09:28:59.128Z,20.00
2022-08-30T09:31:30.438Z,20.10
2022-08-30T09:34:03.248Z,20.10
2022-08-30T09:36:35.597Z,20.10
2022-08-30T09:39:07.517Z,20.20
2022-08-30T09:41:42.801Z,20.30
2022-08-30T09:44:15.922Z,20.30
2022-08-30T09:46:55.509Z,20.40
2022-08-30T09:49:36.133Z,20.60
2022-08-30T09:55:04.019Z,20.50
2022-08-30T09:57:40.858Z,21.00
2022-08-30T10:00:13.527Z,21.10
2022-08-30T10:02:59.663Z,20.70
2022-08-30T10:05:36.233Z,21.40
2022-08-30T10:08:12.979Z,21.60
2022-08-30T10:13:42.646Z,21.70
2022-08-30T10:16:20.192Z,21.90
2022-08-30T10:21:27.329Z,22.00
2022-08-30T10:23:59.555Z,22.20
2022-08-30T10:26:32.811Z,22.20
2022-08-30T10:29:05.362Z,22.30
2022-08-30T10:31:41.905Z,22.50
2022-08-30T10:34:15.299Z,22.30
2022-08-30T10:36:47.845Z,22.30
2022-08-30T10:39:22.160Z,22.40
2022-08-30T10:41:59.552Z,22.50
2022-08-30T10:44:31.313Z,22.60
2022-08-30T10:47:09.409Z,22.60
2022-08-30T10:49:42.817Z,22.70
2022-08-30T10:52:25.576Z,22.90
2022-08-30T10:54:58.616Z,23.00
2022-08-30T10:57:28.145Z,23.20
2022-08-30T11:00:00.997Z,23.30
2022-08-30T11:03:05.464Z,23.40
2022-08-30T11:05:56.795Z,23.50
2022-08-30T11:08:40.184Z,23.50
2022-08-30T11:11:17.031Z,23.60
2022-08-30T11:13:47.424Z,23.70
2022-08-30T11:16:19.095Z,23.70
2022-08-30T11:18:52.110Z,23.70
2022-08-30T11:21:33.970Z,23.90
2022-08-30T11:24:11.396Z,24.00
2022-08-30T11:27:01.234Z,23.90
2022-08-30T11:29:34.735Z,23.90
2022-08-30T11:32:23.482Z,23.70
2022-08-30T11:34:59.533Z,23.60
2022-08-30T11:37:38.499Z,23.40
2022-08-30T11:40:13.257Z,23.30
2022-08-30T11:42:45.805Z,23.20
2022-08-30T11:45:47.368Z,23.10
2022-08-30T11:48:40.025Z,23.00
2022-08-30T11:51:39.617Z,22.90
2022-08-30T11:54:22.924Z,22.60
2022-08-30T11:57:01.879Z,22.40
2022-08-30T11:59:39.345Z,22.30
2022-08-30T12:02:09.236Z,21.90
2022-08-30T12:04:44.286Z,21.60
2022-08-30T12:07:32.894Z,21.50
2022-08-30T12:10:07.831Z,21.40
2022-08-30T12:12:51.974Z,21.00
2022-08-30T12:15:59.062Z,21.30
2022-08-30T12:18:45.607Z,21.50
2022-08-30T12:21:24.477Z,21.60
2022-08-30T12:24:03.738Z,21.80
2022-08-30T12:26:36.077Z,21.90
2022-08-30T12:29:14.450Z,22.00
2022-08-30T12:31:45.045Z,22.00
2022-08-30T12:34:22.620Z,22.10
2022-08-30T12:36:58.962Z,21.80
2022-08-30T12:39:29.979Z,21.80
2022-08-30T12:41:58.826Z,21.70
2022-08-30T12:44:29.539Z,21.80
2022-08-30T12:47:02.981Z,21.70
2022-08-30T12:49:36.626Z,21.50
2022-08-30T12:52:22.864Z,21.20
2022-08-30T12:54:51.350Z,21.10
2022-08-30T12:57:38.804Z,20.90
2022-08-30T13:00:09.100Z,20.90
2022-08-30T13:02:46.910Z,20.90
2022-08-30T13:05:48.350Z,20.80
2022-08-30T13:08:22.521Z,20.60
2022-08-30T13:10:57.359Z,20.70
2022-08-30T13:13:33.218Z,20.70
2022-08-30T13:16:10.199Z,20.80
2022-08-30T13:18:38.229Z,20.70
2022-08-30T13:21:20.023Z,20.70
2022-08-30T13:23:49.461Z,21.00
2022-08-30T13:26:23.116Z,21.30
2022-08-30T13:28:54.159Z,21.50
2022-08-30T13:31:22.673Z,21.60
2022-08-30T13:33:53.138Z,21.70
2022-08-30T13:36:22.977Z,21.70
2022-08-30T13:38:53.885Z,21.70
2022-08-30T13:41:22.876Z,21.90
2022-08-30T13:46:42.090Z,22.00
2022-08-30T13:52:20.354Z,21.60
2022-08-30T13:54:51.413Z,21.60
2022-08-30T14:00:14.591Z,21.50
2022-08-30T14:02:48.994Z,21.50
2022-08-30T14:05:46.870Z,21.40
2022-08-30T14:08:44.241Z,21.40
2022-08-30T14:10:59.302Z,21.30
2022-08-30T14:13:29.323Z,21.40
2022-08-30T14:18:46.141Z,21.40
2022-08-30T14:21:13.983Z,21.30
2022-08-30T14:23:41.814Z,21.30
2022-08-30T14:26:15.455Z,21.40
2022-08-30T14:28:45.675Z,21.40
2022-08-30T14:31:14.571Z,21.40
2022-08-30T14:33:42.432Z,21.30
2022-08-30T14:36:15.560Z,21.20
2022-08-30T14:38:44.470Z,21.20
2022-08-30T14:41:13.810Z,21.10
2022-08-30T14:43:42.013Z,21.00
2022-08-30T14:46:11.405Z,21.00
2022-08-30T14:48:39.926Z,21.00
2022-08-30T14:51:14.543Z,20.90
2022-08-30T14:53:42.404Z,20.80
2022-08-30T14:56:12.274Z,20.80
2022-08-30T14:58:41.533Z,20.80
2022-08-30T15:01:10.886Z,20.70
2022-08-30T15:03:42.193Z,20.70
2022-08-30T15:06:10.384Z,20.70
2022-08-30T15:08:39.502Z,20.60
2022-08-30T15:11:09.767Z,20.60
2022-08-30T15:13:38.137Z,20.60
2022-08-30T15:16:14.030Z,20.50
2022-08-30T15:18:42.253Z,20.50
2022-08-30T15:21:10.165Z,20.40
2022-08-30T15:23:38.166Z,20.30
2022-08-30T15:26:08.141Z,20.20
2022-08-30T15:28:37.247Z,20.10
2022-08-30T15:31:09.173Z,20.00
2022-08-30T15:33:39.439Z,19.90
2022-08-30T15:36:08.518Z,19.80
2022-08-30T15:38:37.429Z,19.80
2022-08-30T15:41:07.913Z,19.90
2022-08-30T15:43:36.648Z,19.90
2022-08-30T15:46:22.465Z,19.80
2022-08-30T15:48:55.239Z,19.70
2022-08-30T15:51:23.951Z,19.50
2022-08-30T15:53:53.550Z,19.60
2022-08-30T15:56:22.269Z,19.50
2022-08-30T15:58:52.913Z,19.50
2022-08-30T16:01:30.447Z,19.50
2022-08-30T16:04:05.603Z,19.40
2022-08-30T16:06:37.534Z,19.50
2022-08-30T16:09:07.063Z,19.50
2022-08-30T16:11:36.739Z,19.50
2022-08-30T16:14:06.378Z,19.40
2022-08-30T16:16:35.309Z,19.40
2022-08-30T16:21:36.998Z,19.40
2022-08-30T16:24:08.212Z,19.30
2022-08-30T16:26:39.535Z,19.30
2022-08-30T16:31:38.148Z,19.10
2022-08-30T16:34:08.134Z,19.10
2022-08-30T16:36:37.115Z,19.10
2022-08-30T16:39:08.661Z,19.00
2022-08-30T16:41:37.699Z,18.90
2022-08-30T16:44:08.350Z,18.90
2022-08-30T16:46:37.419Z,18.80
2022-08-30T16:49:08.819Z,18.70
2022-08-30T16:51:39.327Z,18.90
2022-08-30T16:54:09.076Z,18.70
2022-08-30T16:56:38.744Z,18.80
2022-08-30T16:59:11.215Z,18.70
2022-08-30T17:01:42.429Z,18.80
2022-08-30T17:04:15.824Z,18.80
2022-08-30T17:06:47.263Z,18.80
2022-08-30T17:09:16.045Z,18.80
2022-08-30T17:11:45.025Z,18.80
2022-08-30T17:14:14.159Z,18.60
2022-08-30T17:16:43.352Z,18.70
2022-08-30T17:19:15.437Z,18.50
2022-08-30T17:21:45.051Z,18.40
2022-08-30T17:24:14.114Z,18.50
2022-08-30T17:26:43.264Z,18.40
2022-08-30T17:29:12.898Z,18.40
2022-08-30T17:31:46.535Z,18.40
2022-08-30T17:34:22.273Z,18.50
2022-08-30T17:36:52.807Z,18.50
2022-08-30T17:39:23.614Z,18.40
2022-08-30T17:41:52.875Z,18.40
2022-08-30T17:44:25.558Z,18.30
2022-08-30T17:46:55.101Z,18.40
2022-08-30T17:49:26.902Z,18.40
2022-08-30T17:51:57.102Z,18.40
2022-08-30T17:54:25.870Z,18.30
2022-08-30T17:56:55.285Z,18.30
2022-08-30T17:59:25.416Z,18.20
2022-08-30T18:01:54.812Z,18.20
2022-08-30T18:04:25.170Z,18.10
2022-08-30T18:09:23.589Z,17.90
2022-08-30T18:11:56.268Z,17.80
2022-08-30T18:14:41.170Z,17.70
2022-08-30T18:17:10.942Z,17.50
2022-08-30T18:19:46.604Z,17.30
2022-08-30T18:22:16.041Z,17.30
2022-08-30T18:24:44.915Z,17.10
2022-08-30T18:27:13.334Z,17.10
2022-08-30T18:29:42.191Z,17.00
2022-08-30T18:32:11.640Z,17.00
2022-08-30T18:34:43.030Z,17.00
2022-08-30T18:37:12.645Z,17.00
2022-08-30T18:39:41.311Z,16.90
2022-08-30T18:42:10.331Z,16.90
2022-08-30T18:44:39.938Z,16.60
2022-08-30T18:47:09.680Z,16.40
2022-08-30T18:49:38.329Z,16.40
2022-08-30T18:52:10.942Z,16.40
2022-08-30T18:54:41.601Z,16.10
2022-08-30T18:57:10.673Z,16.00
2022-08-30T18:59:41.809Z,16.00
2022-08-30T19:02:14.241Z,16.00
2022-08-30T19:04:43.823Z,16.00
2022-08-30T19:07:16.598Z,16.10
2022-08-30T19:09:45.784Z,16.10
2022-08-30T19:12:15.250Z,16.20
2022-08-30T19:14:44.715Z,16.30
2022-08-30T19:17:13.618Z,16.20
2022-08-30T19:19:48.213Z,16.20
2022-08-30T19:22:21.870Z,16.20
2022-08-30T19:24:51.697Z,16.10
2022-08-30T19:27:37.793Z,16.10
2022-08-30T19:30:09.159Z,16.10
2022-08-30T19:32:38.322Z,15.90
2022-08-30T19:35:07.416Z,15.90
2022-08-30T19:52:53.763Z,15.50
2022-08-30T19:55:30.037Z,15.30
2022-08-30T19:57:59.284Z,15.80
2022-08-30T20:00:30.598Z,15.80
2022-08-30T20:02:59.863Z,15.70
2022-08-30T20:05:29.352Z,15.50
2022-08-30T20:07:59.728Z,15.70
2022-08-30T20:10:27.634Z,15.60
2022-08-30T20:12:55.573Z,15.60
2022-08-30T20:15:25.595Z,15.60
2022-08-30T20:45:36.232Z,15.30
2022-08-30T20:48:05.687Z,15.30
2022-08-30T20:50:33.511Z,15.30
2022-08-30T20:53:01.565Z,15.20
2022-08-30T20:55:29.495Z,15.00
2022-08-30T20:57:58.592Z,14.90
2022-08-30T21:00:26.651Z,15.10
2022-08-30T21:05:23.625Z,14.70
2022-08-30T21:07:51.395Z,14.90
2022-08-30T21:10:23.210Z,14.90
2022-08-30T21:12:51.611Z,14.90
2022-08-30T21:15:36.773Z,14.80
2022-08-30T21:18:05.887Z,14.80
2022-08-30T21:20:33.785Z,14.80
2022-08-30T21:23:01.598Z,14.70
2022-08-30T21:25:30.916Z,14.70
2022-08-30T21:27:58.735Z,14.70
2022-08-30T21:30:27.948Z,14.70
2022-08-30T21:33:00.030Z,14.60
2022-08-30T21:35:46.108Z,14.50
2022-08-30T21:38:14.190Z,14.50
2022-08-30T21:40:42.517Z,14.40
2022-08-30T21:43:10.702Z,14.40
2022-08-30T21:45:40.201Z,14.30
2022-08-30T21:48:08.535Z,14.40
2022-08-30T21:50:38.578Z,14.30
2022-08-30T21:53:06.671Z,14.40
2022-08-30T21:55:34.672Z,14.40
2022-08-30T21:58:02.650Z,14.50
2022-08-30T22:00:31.750Z,14.60
2022-08-30T22:03:01.062Z,14.60
2022-08-30T22:05:28.969Z,14.70
2022-08-30T22:07:56.874Z,14.70
2022-08-30T22:10:25.214Z,14.90
2022-08-30T22:12:53.003Z,14.90
2022-08-30T22:15:20.862Z,15.00
2022-08-30T22:17:48.634Z,15.10
2022-08-30T22:20:18.470Z,15.10
2022-08-30T22:22:46.755Z,15.20
2022-08-30T22:25:14.701Z,15.20
2022-08-30T22:27:42.492Z,15.30
2022-08-30T22:30:11.409Z,15.40
2022-08-30T22:32:39.999Z,15.40
2022-08-30T22:35:08.883Z,15.50
2022-08-30T22:37:38.060Z,15.50
2022-08-30T22:40:06.511Z,15.60
2022-08-30T22:42:34.305Z,15.60
2022-08-30T22:45:02.263Z,15.70
2022-08-30T22:47:31.669Z,15.70
2022-08-30T22:49:59.503Z,15.70
2022-08-30T22:52:27.372Z,15.80
2022-08-30T22:54:56.667Z,15.80
2022-08-30T22:57:24.447Z,15.80
2022-08-30T22:59:52.380Z,15.80
2022-08-30T23:02:20.293Z,15.80
2022-08-30T23:04:48.162Z,15.80
2022-08-30T23:07:15.959Z,15.90
2022-08-30T23:09:43.698Z,15.90
2022-08-30T23:12:12.793Z,15.90
2022-08-30T23:14:40.569Z,15.90
2022-08-30T23:17:08.466Z,15.90
2022-08-30T23:19:36.334Z,15.90
2022-08-30T23:22:04.122Z,15.90
2022-08-30T23:24:49.962Z,15.90
2022-08-30T23:27:37.038Z,16.00
2022-08-30T23:30:22.987Z,15.90
2022-08-30T23:33:08.565Z,15.90
2022-08-30T23:35:54.792Z,15.90
2022-08-30T23:38:40.432Z,15.90
2022-08-30T23:41:32.928Z,15.90
2022-08-30T23:44:21.459Z,15.90
2022-08-30T23:47:06.922Z,15.90
2022-08-30T23:49:52.542Z,15.90
2022-08-30T23:52:38.047Z,15.90
2022-08-30T23:55:24.563Z,15.90
2022-08-30T23:58:09.890Z,15.90
